• Join FlightAware (Why Join?)
  • Login
  • US Flag 
09:42PM EDT


 

Airport Tracker/Info


-or-


 

Live Flight TrackerFlight Track Log ✈ EJA370 ✈ 09-May-2013 ✈ KSJC - KDTW

Flight Track Log - Related Links

Times and Time Zones

All times are in EDT time to prevent confusion due to time zone crossing. See the EJA370 flight status page for this flight to view local times or setup timezone preferences in your user account.

Time Position Orientation Groundspeed Altitude Reporting Facility
EDT Latitude Longitude Course Direction KTS MPH feet Rate Location/Type
10:06AM 37.4000 -121.9667 31° Northeast 202 232 1,800  Level Northern Cal TRACON
10:07AM 37.4333 -121.9500 22° Northeast 223 257 3,800 1,560 Climbing Northern Cal TRACON
10:08AM 37.4000 -121.9000 130° Southeast 235 270 5,000 600 Climbing Northern Cal TRACON
10:09AM 37.3667 -121.8167 117° Southeast 261 300 5,000 1,260 Level Northern Cal TRACON
10:10AM 37.3108 -121.8050 171° South 277 319 7,500 3,360 Climbing Oakland Center
10:11AM 37.9064 -121.9077 31° Northeast  Level FlightAware Approximate
10:11AM 37.3211 -121.8842 279° West 273 314 11,600  Level Oakland Center
10:12AM 37.3864 -121.9439 324° Northwest 297 342 15,000 2,940 Climbing Oakland Center
10:13AM 37.4742 -121.9228 11° North 326 375 17,600 2,340 Climbing Oakland Center
10:14AM 37.5669 -121.8889 16° North 341 392 19,800 2,220 Climbing Oakland Center
10:15AM 37.6661 -121.8503 17° North 358 412 22,200 2,340 Climbing Oakland Center
10:16AM 37.7622 -121.7925 25° Northeast 382 440 24,600 2,580 Climbing Oakland Center
10:17AM 37.8325 -121.6622 56° Northeast 377 434 27,500 2,460 Climbing Oakland Center
10:18AM 37.8894 -121.5511 57° Northeast 377 434 29,700 2,100 Climbing Oakland Center
10:19AM 37.9483 -121.4353 57° Northeast 383 441 31,800 1,980 Climbing Oakland Center
10:20AM 38.0050 -121.3236 57° Northeast 381 438 33,800 1,860 Climbing Oakland Center
10:21AM 38.0606 -121.2144 57° Northeast 373 429 35,600 1,320 Climbing Oakland Center
10:22AM 38.1144 -121.1050 58° Northeast 369 425 36,600 960 Climbing Oakland Center
10:23AM 38.1706 -120.9931 57° Northeast 373 429 37,600 840 Climbing Oakland Center
10:24AM 38.2278 -120.8786 57° Northeast 379 436 38,400 780 Climbing Oakland Center
10:25AM 38.2847 -120.7636 58° Northeast 385 443 39,300 840 Climbing Oakland Center
10:26AM 38.3533 -120.6264 57° Northeast 385 443 40,200 660 Climbing Oakland Center
10:27AM 38.4103 -120.5086 58° Northeast 388 447 40,700 360 Climbing Oakland Center
10:28AM 38.4689 -120.3908 58° Northeast 392 451 41,000 120 Climbing Oakland Center
10:29AM 38.5267 -120.2692 59° Northeast 399 459 41,000  Level Oakland Center
10:30AM 38.5889 -120.1433 58° Northeast 412 474 41,000  Level Oakland Center
10:31AM 38.6525 -120.0142 58° Northeast 426 490 41,000  Level Oakland Center
10:32AM 38.7172 -119.8836 58° Northeast 432 497 41,000  Level Oakland Center
10:33AM 38.7814 -119.7483 59° Northeast 434 499 41,000  Level Oakland Center
10:34AM 38.8428 -119.6178 59° Northeast 431 496 41,000  Level Oakland Center
10:35AM 38.9064 -119.4869 58° Northeast 431 496 41,000  Level Oakland Center
10:36AM 38.9669 -119.3539 60° Northeast 433 498 41,000  Level Oakland Center
10:37AM 39.0408 -119.1969 59° Northeast 428 493 41,000  Level Oakland Center
10:38AM 39.1031 -119.0667 58° Northeast 428 493 41,000  Level Oakland Center
10:39AM 39.1650 -118.9361 59° Northeast 428 493 41,000  Level Oakland Center
10:40AM 39.2272 -118.8003 59° Northeast 423 487 41,000  Level Oakland Center
10:41AM 39.2881 -118.6692 59° Northeast 423 487 41,000  Level Oakland Center
10:42AM 39.3494 -118.5383 59° Northeast 424 488 41,000  Level Oakland Center
10:43AM 39.4144 -118.3978 59° Northeast 422 486 41,000  Level Oakland Center
10:44AM 39.4739 -118.2678 59° Northeast 421 484 41,000  Level Oakland Center
10:45AM 39.5331 -118.1383 59° Northeast 420 483 41,000  Level Oakland Center
10:46AM 39.5922 -118.0072 60° Northeast 422 486 41,000  Level Oakland Center
10:47AM 39.6522 -117.8778 59° Northeast 420 483 41,000  Level Oakland Center
10:48AM 39.7106 -117.7453 60° Northeast 422 486 41,000  Level Oakland Center
10:49AM 39.7686 -117.6156 60° Northeast 424 488 41,000  Level Oakland Center
10:50AM 39.8353 -117.4697 59° Northeast 421 484 41,000  Level Oakland Center
10:51AM 39.8911 -117.3436 60° Northeast 421 484 41,000  Level Oakland Center
10:52AM 39.9469 -117.2158 60° Northeast 421 484 41,000  Level Salt Lake Center
10:53AM 40.0117 -117.0692 60° Northeast 420 483 41,000  Level Salt Lake Center
10:54AM 40.0683 -116.9419 60° Northeast 423 487 41,000  Level Salt Lake Center
10:55AM 40.1322 -116.7933 61° Northeast 424 488 41,000  Level Salt Lake Center
10:56AM 40.1878 -116.6661 60° Northeast 425 489 41,000  Level Salt Lake Center
10:58AM 40.2528 -116.5178 60° Northeast 425 489 41,000  Level Salt Lake Center
10:59AM 40.3083 -116.3897 60° Northeast 425 489 41,000  Level Salt Lake Center
11:00AM 40.3733 -116.2386 61° Northeast 428 493 41,000  Level Salt Lake Center
11:01AM 40.4289 -116.1092 61° Northeast 428 493 41,000  Level Salt Lake Center
11:02AM 40.4836 -115.9781 61° Northeast 427 491 41,000  Level Salt Lake Center
11:03AM 40.5492 -115.8264 60° Northeast 427 491 41,000  Level Salt Lake Center
11:04AM 40.6028 -115.6964 61° Northeast 426 490 41,000  Level Salt Lake Center
11:05AM 40.6656 -115.5453 61° Northeast 422 486 41,000  Level Salt Lake Center
11:06AM 40.7192 -115.4164 61° Northeast 420 483 41,000  Level Salt Lake Center
11:07AM 40.7831 -115.2653 61° Northeast 421 484 41,000  Level Salt Lake Center
11:08AM 40.8364 -115.1364 61° Northeast 422 486 41,000  Level Salt Lake Center
11:09AM 40.8978 -114.9839 62° Northeast 420 483 41,000  Level Salt Lake Center
11:10AM 40.9531 -114.8531 61° Northeast 425 489 41,000  Level Salt Lake Center
11:11AM 41.0161 -114.7006 61° Northeast 423 487 41,000  Level Salt Lake Center
11:12AM 41.0750 -114.5558 62° Northeast 425 489 41,000  Level Salt Lake Center
11:13AM 41.1289 -114.4181 63° Northeast 422 486 41,000  Level Salt Lake Center
11:14AM 41.1861 -114.2811 61° Northeast 425 489 41,000  Level Salt Lake Center
11:15AM 41.2403 -114.1442 62° Northeast 421 484 41,000  Level Salt Lake Center
11:16AM 41.2956 -114.0069 62° Northeast 420 483 41,000  Level Salt Lake Center
11:17AM 41.3511 -113.8683 62° Northeast 424 488 41,000  Level Salt Lake Center
11:18AM 41.3717 -113.6814 82° East 430 495 41,000  Level Salt Lake Center
11:19AM 41.3822 -113.5242 85° East 429 494 41,000  Level Salt Lake Center
11:20AM 41.3933 -113.3678 85° East 426 490 41,000  Level Salt Lake Center
11:21AM 41.4017 -113.2089 86° East 429 494 41,000  Level Salt Lake Center
11:22AM 41.4125 -113.0497 85° East 431 496 41,000  Level Salt Lake Center
11:23AM 41.4219 -112.8919 85° East 428 493 41,000  Level Salt Lake Center
11:24AM 41.4319 -112.7331 85° East 430 495 41,000  Level Salt Lake Center
11:25AM 41.4425 -112.5408 86° East 433 498 41,000  Level Salt Lake Center
11:26AM 41.4522 -112.3814 85° East 432 497 41,000  Level Salt Lake Center
11:27AM 41.4608 -112.2200 86° East 435 501 41,000  Level Salt Lake Center
11:29AM 41.4700 -112.0578 86° East 436 502 41,000  Level Salt Lake Center
11:30AM 41.4778 -111.8964 86° East 435 501 41,000  Level Salt Lake Center
11:31AM 41.4856 -111.7347 86° East 435 501 41,000  Level Salt Lake Center
11:32AM 41.4953 -111.5722 85° East 437 503 41,000  Level Salt Lake Center
11:33AM 41.5039 -111.3778 87° East 435 501 41,000  Level Salt Lake Center
11:34AM 41.5100 -111.2158 87° East 436 502 41,000  Level Salt Lake Center
11:35AM 41.5181 -111.0539 86° East 436 502 41,000  Level Salt Lake Center
11:36AM 41.5253 -110.8981 86° East 435 501 41,000  Level Salt Lake Center
11:37AM 41.5317 -110.7183 87° East 432 497 41,000  Level Salt Lake Center
11:38AM 41.5394 -110.5636 86° East 436 502 41,000  Level Salt Lake Center
11:39AM 41.5467 -110.3828 87° East 437 503 41,000  Level Salt Lake Center
11:40AM 41.5517 -110.2306 87° East 432 497 41,000  Level Salt Lake Center
11:41AM 41.5589 -110.0508 87° East 433 498 41,000  Level Salt Lake Center
11:42AM 41.5631 -109.8967 88° East 433 498 41,000  Level Salt Lake Center
11:43AM 41.5694 -109.7175 87° East 433 498 41,000  Level Salt Lake Center
11:44AM 41.5739 -109.5628 88° East 433 498 41,000  Level Salt Lake Center
11:45AM 41.5794 -109.4081 87° East 435 501 41,000  Level Salt Lake Center
11:46AM 41.5853 -109.2258 87° East 436 502 41,000  Level Salt Lake Center
11:47AM 41.5894 -109.0678 88° East 437 503 41,000  Level Salt Lake Center
11:48AM 41.6008 -108.8864 85° East 434 499 41,000  Level Salt Lake Center
11:49AM 41.6125 -108.7314 84° East 435 501 41,000  Level Salt Lake Center
11:50AM 41.6247 -108.5769 84° East 435 501 41,000  Level Salt Lake Center
11:51AM 41.6378 -108.3964 84° East 437 503 41,000  Level Salt Lake Center
11:52AM 41.6486 -108.2433 85° East 434 499 41,000  Level Salt Lake Center
11:53AM 41.6617 -108.0647 84° East 433 498 41,000  Level Salt Lake Center
11:54AM 41.6669 -107.9844 85° East 436 502 41,000  Level Denver Center
11:55AM 41.6786 -107.8042 85° East 436 502 41,000  Level Denver Center
11:56AM 41.6903 -107.6503 84° East 437 503 41,000  Level Denver Center
11:57AM 41.7017 -107.4686 85° East 438 504 41,000  Level Denver Center
11:58AM 41.7125 -107.3142 85° East 437 503 41,000  Level Denver Center
11:59AM 41.7231 -107.1317 86° East 439 505 41,000  Level Denver Center
12:00PM 41.7328 -106.9769 85° East 438 504 41,000  Level Denver Center
12:01PM 41.7439 -106.7942 85° East 440 506 41,000  Level Denver Center
12:02PM 41.7539 -106.6381 85° East 442 509 41,000  Level Denver Center
12:03PM 41.7631 -106.4703 86° East 438 504 41,000  Level Denver Center
12:04PM 41.7733 -106.2878 86° East 440 506 41,000  Level Denver Center
12:05PM 41.7825 -106.1306 85° East 442 509 41,000  Level Denver Center
12:06PM 41.7925 -105.9481 86° East 440 506 41,000  Level Denver Center
12:07PM 41.7994 -105.8175 86° East 441 507 41,000  Level Denver Center
12:09PM 41.8079 -105.6333 86° East  Level FlightAware Approximate
12:09PM 41.8164 -105.4519 86° East 441 507 41,000  Level Denver Center
12:10PM 41.8253 -105.2686 86° East 443 510 41,000  Level Denver Center
12:11PM 41.8319 -105.1114 87° East 443 510 41,000  Level Denver Center
12:13PM 41.8400 -104.9267 87° East 446 513 41,000  Level Denver Center
12:14PM 41.8472 -104.7692 86° East 445 512 41,000  Level Denver Center
12:15PM 41.8542 -104.5842 87° East 448 516 41,000  Level Denver Center
12:16PM 41.8614 -104.4256 86° East 447 514 41,000  Level Denver Center
12:17PM 41.8675 -104.2394 87° East 449 517 41,000  Level Denver Center
12:18PM 41.8731 -104.0808 87° East 448 516 41,000  Level Denver Center
12:19PM 41.8803 -103.8956 87° East 447 514 41,000  Level Denver Center
12:20PM 41.8856 -103.7375 87° East 445 512 41,000  Level Denver Center
12:21PM 41.8906 -103.5781 88° East 448 516 41,000  Level Denver Center
12:22PM 41.9058 -103.3922 84° East 448 516 41,000  Level Denver Center
12:23PM 41.9292 -103.2358 79° East 447 514 41,000  Level Denver Center
12:24PM 41.9550 -103.0528 79° East 448 516 41,000  Level Denver Center
12:25PM 41.9764 -102.8953 80° East 449 517 41,000  Level Denver Center
12:26PM 42.0008 -102.7133 80° East 444 511 41,000  Level Denver Center
12:27PM 42.0228 -102.5544 79° East 451 519 41,000  Level Denver Center
12:28PM 42.0467 -102.3706 80° East 449 517 41,000  Level Denver Center
12:29PM 42.0683 -102.2056 80° East 449 517 41,000  Level Denver Center
12:30PM 42.0922 -102.0194 80° East 452 520 41,000  Level Denver Center
12:31PM 42.1125 -101.8603 80° East 451 519 41,000  Level Denver Center
12:32PM 42.1336 -101.7003 80° East 453 521 41,000  Level Denver Center
12:33PM 42.1561 -101.5139 81° East 452 520 41,000  Level Denver Center
12:34PM 42.1761 -101.3528 80° East 454 522 41,000  Level Denver Center
12:35PM 42.1986 -101.1669 81° East 450 518 41,000  Level Denver Center
12:37PM 42.2247 -100.9517 81° East 451 519 41,000  Level Minneapolis Center
12:37PM 42.2392 -100.8189 82° East 451 519 41,000  Level Denver Center
12:38PM 42.2586 -100.6561 81° East 457 526 41,000  Level Denver Center
12:39PM 42.2814 -100.4681 81° East 455 524 41,000  Level Denver Center
12:40PM 42.2992 -100.3050 82° East 457 526 41,000  Level Denver Center
12:41PM 42.3203 -100.1158 81° East 455 524 41,000  Level Denver Center
12:42PM 42.3383 -99.9544 81° East 456 525 41,000  Level Denver Center
12:44PM 42.3558 -99.7919 82° East 457 526 41,000  Level Denver Center
12:45PM 42.3769 -99.5933 82° East 458 527 41,000  Level Denver Center
12:46PM 42.3953 -99.4231 82° East 458 527 41,000  Level Denver Center
12:46PM 42.4078 -99.3214 81° East 458 527 41,000  Level Minneapolis Center
12:47PM 42.4303 -99.1161 81° East 458 527 41,000  Level Minneapolis Center
12:48PM 42.4489 -98.9458 82° East 457 526 41,000  Level Minneapolis Center
12:49PM 42.4678 -98.7731 82° East 461 531 41,000  Level Minneapolis Center
12:50PM 42.4858 -98.6031 82° East 455 524 41,000  Level Minneapolis Center
12:52PM 42.5042 -98.4308 82° East 459 528 41,000  Level Minneapolis Center
12:53PM 42.5233 -98.2594 81° East 460 529 41,000  Level Minneapolis Center
12:54PM 42.5400 -98.0881 82° East 459 528 41,000  Level Minneapolis Center
12:55PM 42.5611 -97.8811 82° East 460 529 41,000  Level Minneapolis Center
12:56PM 42.5772 -97.7217 82° East 458 527 41,000  Level Minneapolis Center
12:57PM 42.5942 -97.5494 82° East 460 529 41,000  Level Minneapolis Center
12:58PM 42.6114 -97.3775 82° East 460 529 41,000  Level Minneapolis Center
12:59PM 42.6281 -97.2044 82° East 460 529 41,000  Level Minneapolis Center
01:00PM 42.6458 -96.9981 83° East 459 528 41,000  Level Minneapolis Center
01:01PM 42.6622 -96.8256 83° East 460 529 41,000  Level Minneapolis Center
01:02PM 42.6786 -96.6525 83° East 460 529 41,000  Level Minneapolis Center
01:03PM 42.6933 -96.4797 83° East 460 529 41,000  Level Minneapolis Center
01:04PM 42.7103 -96.2847 83° East 457 526 41,000  Level Minneapolis Center
01:05PM 42.7253 -96.1125 83° East 459 528 41,000  Level Minneapolis Center
01:06PM 42.7394 -95.9433 83° East 455 524 41,000  Level Minneapolis Center
01:07PM 42.7533 -95.7714 84° East 458 527 41,000  Level Minneapolis Center
01:08PM 42.7672 -95.6003 84° East 458 527 41,000  Level Minneapolis Center
01:09PM 42.7831 -95.3942 84° East 459 528 41,000  Level Minneapolis Center
01:10PM 42.7975 -95.2219 83° East 461 531 41,000  Level Minneapolis Center
01:11PM 42.8103 -95.0494 84° East 461 531 41,000  Level Minneapolis Center
01:12PM 42.8225 -94.8731 85° East 467 537 41,000  Level Minneapolis Center
01:13PM 42.8381 -94.6658 84° East 462 532 41,000  Level Minneapolis Center
01:14PM 42.8508 -94.4861 84° East 465 535 41,000  Level Minneapolis Center
01:16PM 42.8622 -94.3136 85° East 463 533 41,000  Level Minneapolis Center
01:17PM 42.8761 -94.1047 85° East 464 534 41,000  Level Minneapolis Center
01:18PM 42.8842 -93.9661 85° East 464 534 41,000  Level Minneapolis Center
01:19PM 42.8981 -93.7586 85° East 462 532 41,000  Level Minneapolis Center
01:20PM 42.9083 -93.5853 85° East 463 533 41,000  Level Minneapolis Center
01:21PM 42.9206 -93.4089 85° East 469 540 41,000  Level Minneapolis Center
01:22PM 42.9339 -93.1997 85° East 465 535 41,000  Level Minneapolis Center
01:23PM 42.9439 -93.0233 86° East 470 541 41,000  Level Minneapolis Center
01:24PM 42.9536 -92.8486 86° East 467 537 41,000  Level Minneapolis Center
01:25PM 42.9628 -92.6747 86° East 466 536 41,000  Level Minneapolis Center
01:26PM 42.9728 -92.4989 85° East 467 537 41,000  Level Minneapolis Center
01:27PM 42.9833 -92.2886 86° East 465 535 41,000  Level Minneapolis Center
01:28PM 42.9922 -92.1100 86° East 471 542 41,000  Level Minneapolis Center
01:29PM 43.0011 -91.9314 86° East 472 543 41,000  Level Minneapolis Center
01:30PM 43.0103 -91.7525 86° East 472 543 41,000  Level Minneapolis Center
01:31PM 43.0203 -91.5367 86° East 471 542 41,000  Level Minneapolis Center
01:32PM 43.0272 -91.3578 87° East 470 541 41,000  Level Minneapolis Center
01:33PM 43.0358 -91.1469 87° East 465 535 41,000  Level Minneapolis Center
01:34PM 43.0428 -90.9697 87° East 467 537 41,000  Level Minneapolis Center
01:35PM 43.0494 -90.8281 86° East 472 543 41,000  Level Chicago Center
01:36PM 43.0558 -90.6497 87° East 473 544 41,000  Level Chicago Center
01:37PM 43.0611 -90.4728 88° East 470 541 41,000  Level Chicago Center
01:38PM 43.0689 -90.2592 87° East 473 544 41,000  Level Chicago Center
01:39PM 43.0742 -90.0792 88° East 475 547 41,000  Level Chicago Center
01:40PM 43.0808 -89.8839 87° East 475 547 41,000  Level Chicago Center
01:41PM 43.0844 -89.7044 88° East 473 544 41,000  Level Chicago Center
01:42PM 43.0906 -89.5242 87° East 475 547 41,000  Level Chicago Center
01:43PM 43.0947 -89.3433 88° East 476 548 41,000  Level Chicago Center
01:45PM 43.0997 -89.1311 88° East 481 554 41,000  Level Chicago Center
01:46PM 43.1036 -88.9492 88° East 481 554 41,000  Level Chicago Center
01:47PM 43.1078 -88.7667 88° East 482 555 41,000  Level Chicago Center
01:48PM 43.1111 -88.5847 89° East 483 556 41,000  Level Chicago Center
01:49PM 43.1142 -88.4017 89° East 485 558 41,000  Level Chicago Center
01:50PM 43.1289 -88.1869 85° East 489 563 41,000  Level Chicago Center
01:51PM 43.1506 -88.0061 81° East 486 559 41,000  Level Chicago Center
01:52PM 43.1739 -87.8247 80° East 486 559 41,000 -540 Level Chicago Center
01:53PM 43.1958 -87.6433 81° East 486 559 39,900 -1,980 Descending Chicago Center
01:54PM 43.2200 -87.4344 81° East 478 550 37,000 -2,640 Descending Chicago Center
01:55PM 43.2400 -87.2647 81° East 487 560 34,500 -1,980 Descending Chicago Center
01:56PM 43.2625 -87.0836 80° East 480 552 33,000 -780 Descending Chicago Center
01:57PM 43.2831 -86.9008 81° East 482 555 33,000  Level Chicago Center
01:58PM 43.3047 -86.7175 81° East 486 559 33,000  Level Chicago Center
01:59PM 43.3283 -86.4989 81° East 483 556 33,000  Level Chicago Center
02:00PM 43.3486 -86.3161 81° East 482 555 33,000  Level Chicago Center
02:01PM 43.3681 -86.1328 82° East 480 552 33,000 -120 Level Chicago Center
02:02PM 43.3758 -85.9464 87° East 488 562 32,800 -1,260 Descending Chicago Center
02:03PM 43.3458 -85.7675 103° East 478 550 30,400 -2,460 Descending Chicago Center
02:04PM 43.3139 -85.5894 104° East 477 549 27,800 -2,520 Descending Chicago Center
02:05PM 43.2822 -85.4169 104° East 466 536 25,300 -2,280 Descending Chicago Center
02:06PM 43.2536 -85.2522 103° East 447 514 23,100 -1,140 Descending Chicago Center
02:07PM 43.2178 -85.0567 104° East 442 509 23,000 -240 Descending Chicago Center
02:08PM 43.1883 -84.8997 104° East 430 495 22,700 -900 Descending Chicago Center
02:09PM 43.1583 -84.7475 105° East 423 487 21,300 -1,500 Descending Cleveland Center
02:10PM 43.1303 -84.5947 104° East 423 487 19,800 -1,440 Descending Cleveland Center
02:11PM 43.1033 -84.4469 104° East 406 467 18,300 -1,500 Descending Chicago Center
02:12PM 43.0733 -84.3039 106° East 394 453 16,900 -1,260 Descending Cleveland Center
02:13PM 43.0447 -84.1600 105° East 394 453 16,000 -600 Descending Cleveland Center
02:14PM 43.0283 -84.0739 105° East 391 450 16,000  Level Cleveland Center
02:14PM 43.0178 -84.0136 103° East 394 453 16,000 -120 Level Cleveland Center
02:15PM 43.0017 -83.9219 103° East 395 455 15,900 -540 Descending Cleveland Center
02:15PM 42.9886 -83.8728 110° East 394 453 15,500 -1,920 Descending Cleveland Center
02:16PM 42.9425 -83.8053 133° Southeast 371 427 14,000 -2,040 Descending Cleveland Center
02:16PM 42.9142 -83.7783 145° Southeast 362 417 13,500 -1,800 Descending Cleveland Center
02:17PM 42.8567 -83.7469 158° South 321 369 12,200 -1,500 Descending Cleveland Center
02:17PM 42.8297 -83.7314 157° South 337 388 12,000 -1,380 Descending Cleveland Center
02:18PM 42.7806 -83.7064 160° South 269 310 10,800 -1,800 Descending Cleveland Center
02:18PM 42.7600 -83.6911 151° Southeast 303 349 10,200 -1,800 Descending Cleveland Center
02:19PM 42.7172 -83.6608 153° Southeast 265 305 9,000 -1,200 Descending Cleveland Center
02:19PM 42.7111 -83.6492 125° Southeast 257 296 9,000 -240 Level Cleveland Center
02:20PM 42.6817 -83.5800 120° Southeast 224 258 8,800 -600 Descending Cleveland Center
02:20PM 42.6739 -83.5656 126° Southeast 225 259 8,400 -840 Descending Cleveland Center
02:21PM 42.6522 -83.5108 118° Southeast 210 242 8,000 -240 Descending Cleveland Center
02:22PM 42.6111 -83.4072 118° Southeast 231 266 8,000  Level Cleveland Center
02:23PM 42.5875 -83.3469 118° Southeast 237 273 8,000 -120 Level Cleveland Center
02:24PM 42.5539 -83.2636 119° Southeast 237 273 7,800 -780 Descending Cleveland Center
02:25PM 42.5075 -83.2025 136° Southeast 229 264 6,500 -1,380 Descending Cleveland Center
02:26PM 42.4411 -83.1858 170° South 224 258 5,000 -840 Descending Cleveland Center
02:27PM 42.3842 -83.2144 200° South 221 254 4,900 -720 Descending Cleveland Center
02:28PM 42.3292 -83.2542 208° Southwest 230 265 3,600 -1,320 Descending Cleveland Center
02:29PM 42.2761 -83.2942 209° Southwest 176 203 2,300 -1,200 Descending Cleveland Center
02:30PM 42.2442 -83.3181 209° Southwest 104 120 1,200 -1,140 Descending Cleveland Center